createdAt,value
2018-07-08T00:00:42.216Z,99.90
2018-07-08T00:05:44.569Z,99.90
2018-07-08T00:08:15.951Z,99.90
2018-07-08T00:10:56.750Z,99.90
2018-07-08T00:13:27.972Z,99.90
2018-07-08T00:15:59.321Z,99.90
2018-07-08T00:18:30.996Z,99.90
2018-07-08T00:21:02.192Z,99.90
2018-07-08T00:23:33.467Z,99.90
2018-07-08T00:26:05.021Z,99.90
2018-07-08T00:28:36.474Z,99.90
2018-07-08T00:31:07.870Z,99.90
2018-07-08T00:33:39.050Z,99.90
2018-07-08T00:36:10.390Z,99.90
2018-07-08T00:38:41.632Z,99.90
2018-07-08T00:41:13.144Z,99.90
2018-07-08T00:43:44.184Z,99.90
2018-07-08T00:46:15.529Z,99.90
2018-07-08T00:48:46.771Z,99.90
2018-07-08T00:51:17.917Z,99.90
2018-07-08T00:53:49.147Z,99.90
2018-07-08T00:56:20.771Z,99.90
2018-07-08T00:58:52.156Z,99.90
2018-07-08T01:01:23.825Z,99.90
2018-07-08T01:03:55.332Z,99.90
2018-07-08T01:06:26.668Z,99.90
2018-07-08T01:08:57.976Z,99.90
2018-07-08T01:11:29.355Z,99.90
2018-07-08T01:16:31.254Z,99.90
2018-07-08T01:19:02.666Z,99.90
2018-07-08T01:21:34.641Z,99.90
2018-07-08T01:24:06.379Z,99.90
2018-07-08T01:26:38.935Z,99.90
2018-07-08T01:29:10.328Z,99.90
2018-07-08T01:31:41.987Z,99.90
2018-07-08T01:34:13.763Z,99.90
2018-07-08T01:36:45.064Z,99.90
2018-07-08T01:39:16.811Z,99.90
2018-07-08T01:41:48.118Z,99.90
2018-07-08T01:44:19.282Z,99.90
2018-07-08T01:46:50.680Z,99.90
2018-07-08T01:49:21.899Z,99.90
2018-07-08T01:51:53.038Z,99.90
2018-07-08T01:54:25.316Z,99.90
2018-07-08T01:56:56.733Z,99.90
2018-07-08T01:59:27.992Z,99.90
2018-07-08T02:01:59.389Z,99.90
2018-07-08T02:04:30.731Z,99.90
2018-07-08T02:07:02.021Z,99.90
2018-07-08T02:09:33.316Z,99.90
2018-07-08T02:12:04.415Z,99.90
2018-07-08T02:14:35.904Z,99.90
2018-07-08T02:17:07.319Z,99.90
2018-07-08T02:19:38.975Z,99.90
2018-07-08T02:22:10.082Z,99.90
2018-07-08T02:24:41.655Z,99.90
2018-07-08T02:27:13.080Z,99.90
2018-07-08T02:29:44.662Z,99.90
2018-07-08T02:32:17.053Z,99.90
2018-07-08T02:34:48.863Z,99.90
2018-07-08T02:37:20.052Z,99.90
2018-07-08T02:39:51.416Z,99.90
2018-07-08T02:42:23.571Z,99.90
2018-07-08T02:44:55.316Z,99.90
2018-07-08T02:47:26.824Z,99.90
2018-07-08T02:49:58.220Z,99.90
2018-07-08T02:54:59.918Z,99.90
2018-07-08T02:57:31.107Z,99.90
2018-07-08T03:00:02.570Z,99.90
2018-07-08T03:02:33.856Z,99.90
2018-07-08T03:05:05.212Z,99.90
2018-07-08T03:07:36.711Z,99.90
2018-07-08T03:10:08.472Z,99.90
2018-07-08T03:12:39.662Z,99.90
2018-07-08T03:15:10.823Z,99.90
2018-07-08T03:17:42.194Z,99.90
2018-07-08T03:20:14.027Z,99.90
2018-07-08T03:22:45.349Z,99.90
2018-07-08T03:25:16.553Z,99.90
2018-07-08T03:27:47.565Z,99.90
2018-07-08T03:30:18.940Z,99.90
2018-07-08T03:32:50.108Z,99.90
2018-07-08T03:35:21.123Z,99.90
2018-07-08T03:37:52.535Z,99.90
2018-07-08T03:40:23.691Z,99.90
2018-07-08T03:42:55.223Z,99.90
2018-07-08T03:45:26.492Z,99.90
2018-07-08T03:47:57.857Z,99.90
2018-07-08T03:50:28.876Z,99.90
2018-07-08T03:53:00.260Z,99.90
2018-07-08T03:55:31.479Z,99.90
2018-07-08T03:58:03.335Z,99.90
2018-07-08T04:00:34.428Z,99.90
2018-07-08T04:03:05.641Z,99.90
2018-07-08T04:05:37.037Z,99.90
2018-07-08T04:08:08.895Z,99.90
2018-07-08T04:10:39.979Z,99.90
2018-07-08T04:13:12.087Z,99.90
2018-07-08T04:15:43.191Z,99.90
2018-07-08T04:18:14.986Z,99.90
2018-07-08T04:20:46.176Z,99.90
2018-07-08T04:23:17.419Z,99.90
2018-07-08T04:25:48.723Z,99.90
2018-07-08T04:28:19.885Z,99.90
2018-07-08T04:30:51.249Z,99.90
2018-07-08T04:33:22.326Z,99.90
2018-07-08T04:35:53.450Z,99.90
2018-07-08T04:38:24.840Z,99.90
2018-07-08T04:40:56.224Z,99.90
2018-07-08T04:43:27.305Z,99.90
2018-07-08T04:45:58.616Z,99.90
2018-07-08T04:48:29.840Z,99.90
2018-07-08T04:51:01.243Z,99.90
2018-07-08T04:53:32.843Z,99.90
2018-07-08T04:56:04.180Z,99.90
2018-07-08T04:58:35.760Z,99.90
2018-07-08T05:01:07.235Z,99.90
2018-07-08T05:03:38.521Z,99.90
2018-07-08T05:06:10.171Z,99.90
2018-07-08T05:08:41.518Z,99.90
2018-07-08T05:11:12.727Z,99.90
2018-07-08T05:13:43.911Z,99.90
2018-07-08T05:16:15.299Z,99.90
2018-07-08T05:18:46.931Z,99.90
2018-07-08T05:21:18.248Z,99.90
2018-07-08T05:23:50.232Z,99.90
2018-07-08T05:26:21.735Z,99.90
2018-07-08T05:28:53.029Z,99.90
2018-07-08T05:31:24.383Z,99.90
2018-07-08T05:33:56.071Z,99.90
2018-07-08T05:38:57.557Z,99.90
2018-07-08T05:41:28.579Z,99.90
2018-07-08T05:43:59.803Z,99.90
2018-07-08T05:46:31.153Z,99.90
2018-07-08T05:49:02.356Z,99.90
2018-07-08T05:51:33.571Z,99.90
2018-07-08T05:54:04.942Z,99.90
2018-07-08T05:56:36.346Z,99.90
2018-07-08T05:59:07.680Z,99.90
2018-07-08T06:01:38.884Z,99.90
2018-07-08T06:04:10.275Z,99.90
2018-07-08T06:06:41.596Z,99.90
2018-07-08T06:09:13.241Z,99.90
2018-07-08T06:11:44.431Z,99.90
2018-07-08T06:14:15.611Z,99.90
2018-07-08T06:16:46.882Z,99.90
2018-07-08T06:19:18.122Z,99.90
2018-07-08T06:21:49.221Z,99.90
2018-07-08T06:24:20.453Z,99.90
2018-07-08T06:26:51.851Z,99.90
2018-07-08T06:29:23.065Z,99.90
2018-07-08T06:31:54.335Z,99.90
2018-07-08T06:34:26.062Z,99.90
2018-07-08T06:39:27.959Z,99.90
2018-07-08T06:41:59.348Z,99.90
2018-07-08T06:44:30.539Z,99.90
2018-07-08T06:47:01.989Z,99.90
2018-07-08T06:49:33.169Z,99.90
2018-07-08T06:52:04.426Z,99.90
2018-07-08T06:54:35.483Z,99.90
2018-07-08T06:57:07.041Z,99.90
2018-07-08T06:59:38.307Z,99.90
2018-07-08T07:02:09.518Z,99.90
2018-07-08T07:04:40.652Z,99.90
2018-07-08T07:07:12.021Z,99.90
2018-07-08T07:09:43.232Z,99.90
2018-07-08T07:12:14.699Z,99.90
2018-07-08T07:14:45.843Z,99.90
2018-07-08T07:17:17.202Z,99.90
2018-07-08T07:19:49.360Z,99.90
2018-07-08T07:22:21.344Z,99.90
2018-07-08T07:24:53.039Z,99.90
2018-07-08T07:27:24.318Z,99.90
2018-07-08T07:29:55.573Z,99.90
2018-07-08T07:32:26.766Z,99.90
2018-07-08T07:34:58.084Z,99.90
2018-07-08T07:37:29.380Z,99.90
2018-07-08T07:40:00.724Z,99.90
2018-07-08T07:42:32.087Z,99.90
2018-07-08T07:45:03.267Z,99.90
2018-07-08T07:47:34.616Z,99.90
2018-07-08T07:50:05.982Z,99.90
2018-07-08T07:52:37.047Z,99.90
2018-07-08T07:55:08.425Z,99.90
2018-07-08T07:57:39.666Z,99.90
2018-07-08T08:00:11.013Z,99.90
2018-07-08T08:02:42.225Z,99.90
2018-07-08T08:05:13.560Z,99.90
2018-07-08T08:07:44.595Z,99.90
2018-07-08T08:10:15.963Z,99.90
2018-07-08T08:12:47.365Z,99.90
2018-07-08T08:15:18.547Z,99.90
2018-07-08T08:17:49.723Z,99.90
2018-07-08T08:20:21.000Z,99.90
2018-07-08T08:22:52.345Z,98.70
2018-07-08T08:25:23.563Z,99.90
2018-07-08T08:27:54.728Z,99.90
2018-07-08T08:30:25.974Z,99.90
2018-07-08T08:32:57.118Z,99.70
2018-07-08T08:35:28.467Z,99.90
2018-07-08T08:37:59.871Z,99.90
2018-07-08T08:40:31.740Z,99.80
2018-07-08T08:43:02.928Z,99.70
2018-07-08T08:45:34.227Z,99.90
2018-07-08T08:48:05.469Z,99.20
2018-07-08T08:50:36.615Z,99.90
2018-07-08T08:53:07.623Z,99.30
2018-07-08T08:55:38.992Z,97.10
2018-07-08T08:58:10.668Z,98.40
2018-07-08T09:00:41.963Z,98.10
2018-07-08T09:03:13.277Z,98.00
2018-07-08T09:05:44.763Z,96.20
2018-07-08T09:08:16.148Z,97.40
2018-07-08T09:10:47.771Z,97.20
2018-07-08T09:16:01.732Z,95.60
2018-07-08T09:18:33.092Z,93.70
2018-07-08T09:21:04.683Z,95.90
2018-07-08T09:23:35.922Z,95.90
2018-07-08T09:26:08.214Z,93.60
2018-07-08T09:28:39.438Z,93.60
2018-07-08T09:31:10.800Z,95.10
2018-07-08T09:33:42.026Z,95.10
2018-07-08T09:36:13.191Z,92.60
2018-07-08T09:38:44.457Z,91.50
2018-07-08T09:41:15.579Z,92.00
2018-07-08T09:43:47.552Z,92.90
2018-07-08T09:46:19.452Z,93.10
2018-07-08T09:48:50.711Z,91.30
2018-07-08T09:51:22.101Z,91.10
2018-07-08T09:53:53.331Z,91.30
2018-07-08T09:56:24.747Z,88.00
2018-07-08T09:58:56.308Z,90.80
2018-07-08T10:01:27.496Z,90.30
2018-07-08T10:03:59.060Z,88.50
2018-07-08T10:06:30.704Z,85.70
2018-07-08T10:09:01.842Z,88.00
2018-07-08T10:11:33.051Z,84.80
2018-07-08T10:14:04.300Z,74.90
2018-07-08T10:16:35.644Z,79.70
2018-07-08T10:19:06.844Z,77.40
2018-07-08T10:21:39.019Z,76.00
2018-07-08T10:24:10.573Z,77.60
2018-07-08T10:26:41.920Z,72.00
2018-07-08T10:29:16.216Z,74.00
2018-07-08T10:31:50.539Z,74.70
2018-07-08T10:34:22.055Z,67.20
2018-07-08T10:36:53.210Z,70.00
2018-07-08T10:39:24.438Z,71.20
2018-07-08T10:41:55.798Z,70.00
2018-07-08T10:44:26.972Z,72.50
2018-07-08T10:46:57.979Z,71.20
2018-07-08T10:49:29.159Z,72.60
2018-07-08T10:52:00.429Z,73.70
2018-07-08T10:54:31.727Z,67.30
2018-07-08T10:57:03.190Z,66.70
2018-07-08T10:59:34.708Z,63.30
2018-07-08T11:02:06.056Z,57.90
2018-07-08T11:04:37.460Z,61.70
2018-07-08T11:07:08.670Z,61.00
2018-07-08T11:09:40.179Z,61.50
2018-07-08T11:12:11.329Z,60.20
2018-07-08T11:14:42.548Z,62.30
2018-07-08T11:19:44.451Z,59.80
2018-07-08T11:22:15.674Z,63.00
2018-07-08T11:24:47.740Z,58.80
2018-07-08T11:27:18.988Z,58.10
2018-07-08T11:29:50.207Z,60.90
2018-07-08T11:32:21.604Z,56.30
2018-07-08T11:34:52.953Z,59.00
2018-07-08T11:37:24.183Z,58.00
2018-07-08T11:39:55.425Z,59.20
2018-07-08T11:42:26.632Z,59.80
2018-07-08T11:44:57.968Z,60.00
2018-07-08T11:47:29.368Z,60.00
2018-07-08T11:50:00.783Z,56.90
2018-07-08T11:52:31.947Z,56.90
2018-07-08T11:55:03.324Z,58.40
2018-07-08T11:57:34.943Z,55.70
2018-07-08T12:00:06.729Z,55.80
2018-07-08T12:02:38.346Z,56.10
2018-07-08T12:05:09.946Z,58.90
2018-07-08T12:07:41.032Z,57.00
2018-07-08T12:10:12.859Z,57.70
2018-07-08T12:12:44.652Z,58.60
2018-07-08T12:15:15.796Z,59.10
2018-07-08T12:17:47.411Z,56.50
2018-07-08T12:20:18.760Z,57.10
2018-07-08T12:22:50.470Z,57.20
2018-07-08T12:25:21.568Z,56.50
2018-07-08T12:27:52.912Z,56.80
2018-07-08T12:30:24.148Z,57.40
2018-07-08T12:32:55.514Z,56.50
2018-07-08T12:35:27.053Z,57.00
2018-07-08T12:37:58.059Z,57.30
2018-07-08T12:40:29.920Z,54.60
2018-07-08T12:43:01.063Z,55.30
2018-07-08T12:45:32.451Z,54.20
2018-07-08T12:48:04.065Z,55.40
2018-07-08T12:50:35.415Z,52.10
2018-07-08T12:53:07.625Z,52.40
2018-07-08T12:55:39.975Z,52.10
2018-07-08T12:58:11.139Z,54.00
2018-07-08T13:00:42.853Z,54.10
2018-07-08T13:03:14.556Z,54.30
2018-07-08T13:05:45.919Z,54.80
2018-07-08T13:08:17.101Z,51.90
2018-07-08T13:10:49.013Z,55.20
2018-07-08T13:13:20.266Z,54.70
2018-07-08T13:15:52.087Z,54.60
2018-07-08T13:18:23.436Z,55.00
2018-07-08T13:20:54.720Z,54.50
2018-07-08T13:25:56.617Z,56.60
2018-07-08T13:28:27.866Z,55.10
2018-07-08T13:30:59.055Z,54.90
2018-07-08T13:33:30.602Z,56.30
2018-07-08T13:36:02.732Z,55.70
2018-07-08T13:38:33.812Z,55.80
2018-07-08T13:41:05.411Z,56.10
2018-07-08T13:43:36.563Z,55.60
2018-07-08T13:46:08.028Z,56.40
2018-07-08T13:48:39.622Z,57.00
2018-07-08T13:51:11.160Z,56.50
2018-07-08T13:53:42.668Z,57.10
2018-07-08T13:56:14.385Z,57.00
2018-07-08T13:58:45.466Z,57.80
2018-07-08T14:01:16.820Z,57.60
2018-07-08T14:03:47.905Z,58.00
2018-07-08T14:06:19.103Z,57.10
2018-07-08T14:08:51.145Z,56.30
2018-07-08T14:13:53.550Z,58.10
2018-07-08T14:16:25.337Z,57.30
2018-07-08T14:18:56.533Z,54.40
2018-07-08T14:21:27.775Z,54.50
2018-07-08T14:23:58.921Z,54.30
2018-07-08T14:26:29.957Z,56.00
2018-07-08T14:29:01.567Z,58.20
2018-07-08T14:31:32.801Z,56.00
2018-07-08T14:34:04.416Z,56.50
2018-07-08T14:36:35.775Z,57.50
2018-07-08T14:39:08.095Z,56.60
2018-07-08T14:41:39.730Z,54.50
2018-07-08T14:44:10.892Z,55.00
2018-07-08T14:46:42.236Z,57.10
2018-07-08T14:49:13.401Z,56.40
2018-07-08T14:51:44.788Z,55.80
2018-07-08T14:54:15.988Z,56.20
2018-07-08T14:56:46.975Z,55.40
2018-07-08T14:59:18.691Z,55.90
2018-07-08T15:01:49.938Z,55.50
2018-07-08T15:04:22.080Z,57.10
2018-07-08T15:06:53.736Z,57.10
2018-07-08T15:09:25.395Z,57.10
2018-07-08T15:11:56.995Z,58.00
2018-07-08T15:14:28.238Z,57.80
2018-07-08T15:16:59.747Z,57.50
2018-07-08T15:19:30.868Z,58.50
2018-07-08T15:22:02.159Z,56.60
2018-07-08T15:24:33.696Z,58.10
2018-07-08T15:27:05.192Z,58.10
2018-07-08T15:29:36.872Z,56.80
2018-07-08T15:32:08.460Z,58.30
2018-07-08T15:34:39.868Z,57.30
2018-07-08T15:37:11.224Z,56.90
2018-07-08T15:39:42.782Z,57.30
2018-07-08T15:42:14.120Z,56.40
2018-07-08T15:44:45.622Z,57.20
2018-07-08T15:47:16.763Z,57.70
2018-07-08T15:49:48.074Z,56.70
2018-07-08T15:52:19.875Z,57.80
2018-07-08T15:54:51.076Z,56.40
2018-07-08T15:57:22.629Z,56.50
2018-07-08T15:59:53.809Z,56.20
2018-07-08T16:02:24.953Z,57.20
2018-07-08T16:04:56.100Z,56.80
2018-07-08T16:07:27.696Z,56.80
2018-07-08T16:09:58.823Z,57.40
2018-07-08T16:12:30.042Z,56.40
2018-07-08T16:15:02.229Z,58.40
2018-07-08T16:17:33.428Z,56.50
2018-07-08T16:20:05.195Z,56.80
2018-07-08T16:22:36.360Z,57.60
2018-07-08T16:25:07.775Z,57.30
2018-07-08T16:27:38.961Z,58.30
2018-07-08T16:30:10.289Z,57.60
2018-07-08T16:32:42.270Z,57.90
2018-07-08T16:35:13.723Z,57.90
2018-07-08T16:37:45.076Z,57.80
2018-07-08T16:40:16.521Z,57.90
2018-07-08T16:42:47.851Z,57.50
2018-07-08T16:45:19.488Z,58.30
2018-07-08T16:47:51.490Z,57.80
2018-07-08T16:50:22.898Z,58.50
2018-07-08T16:52:54.183Z,58.50
2018-07-08T16:55:25.701Z,57.00
2018-07-08T16:57:57.107Z,58.30
2018-07-08T17:00:28.367Z,57.00
2018-07-08T17:02:59.753Z,57.50
2018-07-08T17:05:31.143Z,57.40
2018-07-08T17:08:02.497Z,57.50
2018-07-08T17:10:34.409Z,56.30
2018-07-08T17:13:05.759Z,57.30
2018-07-08T17:15:37.522Z,57.20
2018-07-08T17:18:08.919Z,55.90
2018-07-08T17:20:40.232Z,57.10
2018-07-08T17:23:11.521Z,56.90
2018-07-08T17:25:43.285Z,56.10
2018-07-08T17:28:14.671Z,55.90
2018-07-08T17:30:45.835Z,55.40
2018-07-08T17:33:17.070Z,55.30
2018-07-08T17:35:48.927Z,55.40
2018-07-08T17:38:19.972Z,55.50
2018-07-08T17:40:51.662Z,55.20
2018-07-08T17:45:53.487Z,54.70
2018-07-08T17:48:24.529Z,56.20
2018-07-08T17:50:55.791Z,55.20
2018-07-08T17:53:26.988Z,53.80
2018-07-08T17:55:58.119Z,55.20
2018-07-08T17:58:29.467Z,54.60
2018-07-08T18:01:00.724Z,56.20
2018-07-08T18:03:31.929Z,54.50
2018-07-08T18:06:03.480Z,54.00
2018-07-08T18:08:36.264Z,54.50
2018-07-08T18:11:07.685Z,54.60
2018-07-08T18:13:38.944Z,55.20
2018-07-08T18:16:10.201Z,55.20
2018-07-08T18:18:41.560Z,56.40
2018-07-08T18:21:13.117Z,56.50
2018-07-08T18:23:44.392Z,56.80
2018-07-08T18:26:15.701Z,57.60
2018-07-08T18:28:46.748Z,56.70
2018-07-08T18:31:17.738Z,56.80
2018-07-08T18:33:49.380Z,56.90
2018-07-08T18:36:20.832Z,56.90
2018-07-08T18:38:52.308Z,58.20
2018-07-08T18:41:23.680Z,57.50
2018-07-08T18:43:54.984Z,58.40
2018-07-08T18:46:26.586Z,58.50
2018-07-08T18:48:57.644Z,58.00
2018-07-08T18:51:29.300Z,60.30
2018-07-08T18:54:01.204Z,60.00
2018-07-08T18:56:32.596Z,59.40
2018-07-08T18:59:03.817Z,59.20
2018-07-08T19:01:35.015Z,59.90
2018-07-08T19:04:06.624Z,60.30
2018-07-08T19:06:37.940Z,59.40
2018-07-08T19:09:09.768Z,60.80
2018-07-08T19:11:41.591Z,61.60
2018-07-08T19:14:12.709Z,61.20
2018-07-08T19:16:43.901Z,62.30
2018-07-08T19:19:15.069Z,62.50
2018-07-08T19:21:46.434Z,63.20
2018-07-08T19:24:17.850Z,62.10
2018-07-08T19:26:49.144Z,62.00
2018-07-08T19:29:21.132Z,62.50
2018-07-08T19:34:23.460Z,63.50
2018-07-08T19:36:54.899Z,63.50
2018-07-08T19:39:26.058Z,64.30
2018-07-08T19:41:57.723Z,64.20
2018-07-08T19:44:28.791Z,65.20
2018-07-08T19:47:00.891Z,65.00
2018-07-08T19:49:32.440Z,65.10
2018-07-08T19:52:04.415Z,65.20
2018-07-08T19:54:37.252Z,66.20
2018-07-08T19:57:08.575Z,66.00
2018-07-08T20:02:10.489Z,67.00
2018-07-08T20:04:41.704Z,67.10
2018-07-08T20:07:13.019Z,67.10
2018-07-08T20:09:44.464Z,67.80
2018-07-08T20:12:15.888Z,67.80
2018-07-08T20:14:48.136Z,68.40
2018-07-08T20:17:19.323Z,68.50
2018-07-08T20:19:50.713Z,68.10
2018-07-08T20:22:23.089Z,68.70
2018-07-08T20:24:54.799Z,69.10
2018-07-08T20:27:26.868Z,69.70
2018-07-08T20:29:58.230Z,70.50
2018-07-08T20:32:29.751Z,71.20
2018-07-08T20:35:01.995Z,72.50
2018-07-08T20:37:33.093Z,72.90
2018-07-08T20:40:04.545Z,73.60
2018-07-08T20:42:35.721Z,74.40
2018-07-08T20:45:07.377Z,74.20
2018-07-08T20:47:38.934Z,75.00
2018-07-08T20:50:10.040Z,75.00
2018-07-08T20:52:41.268Z,75.70
2018-07-08T20:57:44.572Z,76.80
2018-07-08T21:00:16.252Z,77.20
2018-07-08T21:02:47.852Z,77.60
2018-07-08T21:05:19.501Z,78.60
2018-07-08T21:07:51.420Z,78.50
2018-07-08T21:10:22.784Z,79.20
2018-07-08T21:12:54.152Z,79.80
2018-07-08T21:17:56.051Z,80.40
2018-07-08T21:20:27.874Z,81.20
2018-07-08T21:22:59.501Z,81.20
2018-07-08T21:25:30.951Z,81.80
2018-07-08T21:28:02.432Z,82.00
2018-07-08T21:30:33.781Z,82.60
2018-07-08T21:33:05.981Z,83.30
2018-07-08T21:35:37.432Z,83.10
2018-07-08T21:38:08.545Z,83.70
2018-07-08T21:40:40.200Z,83.90
2018-07-08T21:43:11.648Z,84.70
2018-07-08T21:45:43.488Z,85.10
2018-07-08T21:48:14.703Z,84.80
2018-07-08T21:50:45.888Z,86.10
2018-07-08T21:53:17.447Z,85.90
2018-07-08T21:55:48.638Z,86.00
2018-07-08T21:58:20.025Z,86.90
2018-07-08T22:01:17.042Z,86.90
2018-07-08T22:03:49.178Z,87.40
2018-07-08T22:06:21.265Z,87.20
2018-07-08T22:08:52.956Z,87.90
2018-07-08T22:11:24.556Z,87.90
2018-07-08T22:13:56.180Z,88.40
2018-07-08T22:16:27.499Z,89.10
2018-07-08T22:18:58.878Z,89.50
2018-07-08T22:21:30.092Z,90.00
2018-07-08T22:24:01.761Z,90.20
2018-07-08T22:26:32.899Z,90.60
2018-07-08T22:29:04.031Z,90.70
2018-07-08T22:31:35.485Z,91.20
2018-07-08T22:34:06.867Z,91.20
2018-07-08T22:39:11.164Z,91.70
2018-07-08T22:41:46.414Z,91.40
2018-07-08T22:44:17.865Z,91.80
2018-07-08T22:46:49.005Z,92.20
2018-07-08T22:49:20.207Z,92.20
2018-07-08T22:51:51.639Z,92.50
2018-07-08T22:54:22.803Z,92.80
2018-07-08T22:56:54.438Z,93.00
2018-07-08T22:59:26.581Z,93.10
2018-07-08T23:02:14.573Z,93.40
2018-07-08T23:04:45.892Z,93.40
2018-07-08T23:07:17.239Z,94.00
2018-07-08T23:09:48.777Z,94.10
2018-07-08T23:12:20.459Z,94.40
2018-07-08T23:14:51.861Z,94.80
2018-07-08T23:17:23.167Z,94.90
2018-07-08T23:19:54.532Z,95.90
2018-07-08T23:22:41.640Z,95.80
2018-07-08T23:25:13.278Z,96.70
2018-07-08T23:27:44.896Z,96.80
2018-07-08T23:30:16.285Z,97.60
2018-07-08T23:32:47.443Z,97.90
2018-07-08T23:35:19.496Z,98.20
2018-07-08T23:37:51.248Z,98.50
2018-07-08T23:40:23.466Z,98.20
2018-07-08T23:45:25.447Z,98.90
2018-07-08T23:47:56.543Z,99.20
2018-07-08T23:50:28.223Z,99.20
2018-07-08T23:52:59.344Z,99.60
2018-07-08T23:55:30.561Z,99.60
2018-07-08T23:58:01.842Z,99.90
